sensor_id;sensor_type;location;lat;lon;timestamp;pressure;altitude;pressure_sealevel;temperature;humidity
74542;BME280;63015;45.378;20.360;2023-03-03T00:01:55;101020.22;;;4.93;68.85
74542;BME280;63015;45.378;20.360;2023-03-03T00:03:56;101011.69;;;4.96;68.83
74542;BME280;63015;45.378;20.360;2023-03-03T00:05:57;101018.41;;;4.90;69.01
74542;BME280;63015;45.378;20.360;2023-03-03T00:07:58;101013.16;;;4.87;69.06
74542;BME280;63015;45.378;20.360;2023-03-03T00:09:59;101017.50;;;4.88;69.21
74542;BME280;63015;45.378;20.360;2023-03-03T00:12:01;101021.00;;;4.90;69.17
74542;BME280;63015;45.378;20.360;2023-03-03T00:14:22;101017.50;;;4.88;69.13
74542;BME280;63015;45.378;20.360;2023-03-03T00:16:37;101018.47;;;4.92;69.07
74542;BME280;63015;45.378;20.360;2023-03-03T00:18:41;101020.03;;;4.87;69.00
74542;BME280;63015;45.378;20.360;2023-03-03T00:20:47;101018.22;;;4.84;69.26
74542;BME280;63015;45.378;20.360;2023-03-03T00:22:49;101019.94;;;4.84;69.19
74542;BME280;63015;45.378;20.360;2023-03-03T00:24:49;101022.34;;;4.79;69.32
74542;BME280;63015;45.378;20.360;2023-03-03T00:26:54;101019.06;;;4.83;69.06
74542;BME280;63015;45.378;20.360;2023-03-03T00:28:55;101013.06;;;4.84;69.19
74542;BME280;63015;45.378;20.360;2023-03-03T00:31:00;101012.03;;;4.79;69.46
74542;BME280;63015;45.378;20.360;2023-03-03T00:33:41;101015.63;;;4.84;69.16
74542;BME280;63015;45.378;20.360;2023-03-03T00:35:33;101008.50;;;4.75;69.35
74542;BME280;63015;45.378;20.360;2023-03-03T00:37:39;101010.09;;;4.72;69.66
74542;BME280;63015;45.378;20.360;2023-03-03T00:39:40;101005.97;;;4.77;69.34
74542;BME280;63015;45.378;20.360;2023-03-03T00:41:40;101002.47;;;4.76;69.23
74542;BME280;63015;45.378;20.360;2023-03-03T00:43:41;100999.91;;;4.76;69.38
74542;BME280;63015;45.378;20.360;2023-03-03T00:46:00;100999.03;;;4.76;69.35
74542;BME280;63015;45.378;20.360;2023-03-03T00:48:15;100995.66;;;4.78;69.35
74542;BME280;63015;45.378;20.360;2023-03-03T00:50:26;100987.72;;;4.72;69.52
74542;BME280;63015;45.378;20.360;2023-03-03T00:52:27;101001.56;;;4.74;69.30
74542;BME280;63015;45.378;20.360;2023-03-03T00:54:28;100989.53;;;4.75;69.40
74542;BME280;63015;45.378;20.360;2023-03-03T00:56:29;100987.72;;;4.72;69.68
74542;BME280;63015;45.378;20.360;2023-03-03T00:58:30;100985.94;;;4.70;69.54
74542;BME280;63015;45.378;20.360;2023-03-03T01:00:32;100984.06;;;4.66;69.58
74542;BME280;63015;45.378;20.360;2023-03-03T01:02:33;100979.91;;;4.69;69.61
74542;BME280;63015;45.378;20.360;2023-03-03T01:04:33;100973.00;;;4.70;69.54
74542;BME280;63015;45.378;20.360;2023-03-03T01:06:34;100974.72;;;4.69;69.47
74542;BME280;63015;45.378;20.360;2023-03-03T01:08:34;100970.47;;;4.71;69.42
74542;BME280;63015;45.378;20.360;2023-03-03T01:10:39;100964.38;;;4.68;69.57
74542;BME280;63015;45.378;20.360;2023-03-03T01:12:41;100965.25;;;4.70;69.57
74542;BME280;63015;45.378;20.360;2023-03-03T01:14:42;100968.63;;;4.67;69.46
74542;BME280;63015;45.378;20.360;2023-03-03T01:16:44;100963.44;;;4.66;69.56
74542;BME280;63015;45.378;20.360;2023-03-03T01:18:45;100963.47;;;4.67;69.42
74542;BME280;63015;45.378;20.360;2023-03-03T01:20:46;100954.75;;;4.64;69.64
74542;BME280;63015;45.378;20.360;2023-03-03T01:22:46;100955.59;;;4.63;69.83
74542;BME280;63015;45.378;20.360;2023-03-03T01:24:47;100954.84;;;4.67;69.58
74542;BME280;63015;45.378;20.360;2023-03-03T01:26:47;100956.66;;;4.69;69.51
74542;BME280;63015;45.378;20.360;2023-03-03T01:28:48;100949.78;;;4.70;69.42
74542;BME280;63015;45.378;20.360;2023-03-03T01:30:50;100948.78;;;4.66;69.64
74542;BME280;63015;45.378;20.360;2023-03-03T01:32:51;100953.19;;;4.69;69.47
74542;BME280;63015;45.378;20.360;2023-03-03T01:34:52;100947.06;;;4.65;69.59
74542;BME280;63015;45.378;20.360;2023-03-03T01:36:53;100951.50;;;4.69;69.40
74542;BME280;63015;45.378;20.360;2023-03-03T01:38:53;100948.13;;;4.72;69.47
74542;BME280;63015;45.378;20.360;2023-03-03T01:40:56;100950.78;;;4.75;69.46
74542;BME280;63015;45.378;20.360;2023-03-03T01:42:58;100950.59;;;4.69;69.52
74542;BME280;63015;45.378;20.360;2023-03-03T01:45:19;100946.47;;;4.74;69.30
74542;BME280;63015;45.378;20.360;2023-03-03T01:47:21;100946.16;;;4.65;69.73
74542;BME280;63015;45.378;20.360;2023-03-03T01:49:40;100941.94;;;4.67;69.57
74542;BME280;63015;45.378;20.360;2023-03-03T01:51:51;100944.50;;;4.65;69.68
74542;BME280;63015;45.378;20.360;2023-03-03T01:53:57;100942.00;;;4.68;69.70
74542;BME280;63015;45.378;20.360;2023-03-03T01:55:59;100940.09;;;4.63;69.82
74542;BME280;63015;45.378;20.360;2023-03-03T01:58:11;100940.09;;;4.63;69.72
74542;BME280;63015;45.378;20.360;2023-03-03T02:00:13;100949.53;;;4.62;69.76
74542;BME280;63015;45.378;20.360;2023-03-03T02:02:15;100943.53;;;4.63;69.81
74542;BME280;63015;45.378;20.360;2023-03-03T02:04:16;100942.69;;;4.63;69.48
74542;BME280;63015;45.378;20.360;2023-03-03T02:06:22;100942.69;;;4.63;69.50
74542;BME280;63015;45.378;20.360;2023-03-03T02:08:29;100940.94;;;4.61;69.60
74542;BME280;63015;45.378;20.360;2023-03-03T02:10:34;100929.66;;;4.59;69.67
74542;BME280;63015;45.378;20.360;2023-03-03T02:14:38;100932.34;;;4.63;69.72
74542;BME280;63015;45.378;20.360;2023-03-03T02:16:39;100930.59;;;4.61;69.58
74542;BME280;63015;45.378;20.360;2023-03-03T02:18:40;100937.31;;;4.56;69.78
74542;BME280;63015;45.378;20.360;2023-03-03T02:21:04;100941.59;;;4.56;69.87
74542;BME280;63015;45.378;20.360;2023-03-03T02:25:15;100941.72;;;4.59;69.75
74542;BME280;63015;45.378;20.360;2023-03-03T02:27:19;100938.13;;;4.55;69.82
74542;BME280;63015;45.378;20.360;2023-03-03T02:29:20;100932.94;;;4.54;70.13
74542;BME280;63015;45.378;20.360;2023-03-03T02:31:22;100928.69;;;4.56;70.02
74542;BME280;63015;45.378;20.360;2023-03-03T02:33:24;100934.78;;;4.58;69.84
74542;BME280;63015;45.378;20.360;2023-03-03T02:35:28;100932.16;;;4.56;69.98
74542;BME280;63015;45.378;20.360;2023-03-03T02:37:29;100930.44;;;4.57;70.16
74542;BME280;63015;45.378;20.360;2023-03-03T02:39:31;100934.75;;;4.56;70.20
74542;BME280;63015;45.378;20.360;2023-03-03T02:43:55;100930.34;;;4.54;70.22
74542;BME280;63015;45.378;20.360;2023-03-03T02:45:58;100926.06;;;4.54;70.26
74542;BME280;63015;45.378;20.360;2023-03-03T02:47:59;100926.94;;;4.55;70.49
74542;BME280;63015;45.378;20.360;2023-03-03T02:49:59;100922.63;;;4.54;70.50
74542;BME280;63015;45.378;20.360;2023-03-03T02:52:02;100932.03;;;4.53;70.38
74542;BME280;63015;45.378;20.360;2023-03-03T02:54:04;100927.56;;;4.48;70.62
74542;BME280;63015;45.378;20.360;2023-03-03T02:56:07;100928.59;;;4.53;70.28
74542;BME280;63015;45.378;20.360;2023-03-03T02:58:08;100930.31;;;4.52;70.31
74542;BME280;63015;45.378;20.360;2023-03-03T03:00:10;100923.47;;;4.54;70.14
74542;BME280;63015;45.378;20.360;2023-03-03T03:02:10;100920.69;;;4.48;70.36
74542;BME280;63015;45.378;20.360;2023-03-03T03:04:14;100925.16;;;4.52;70.21
74542;BME280;63015;45.378;20.360;2023-03-03T03:06:18;100920.00;;;4.52;70.22
74542;BME280;63015;45.378;20.360;2023-03-03T03:08:20;100926.84;;;4.52;70.40
74542;BME280;63015;45.378;20.360;2023-03-03T03:10:20;100925.94;;;4.50;70.39
74542;BME280;63015;45.378;20.360;2023-03-03T03:12:21;100920.06;;;4.55;70.18
74542;BME280;63015;45.378;20.360;2023-03-03T03:14:25;100920.06;;;4.55;70.47
74542;BME280;63015;45.378;20.360;2023-03-03T03:16:27;100925.25;;;4.55;70.31
74542;BME280;63015;45.378;20.360;2023-03-03T03:18:29;100913.97;;;4.53;70.50
74542;BME280;63015;45.378;20.360;2023-03-03T03:20:30;100910.53;;;4.53;70.40
74542;BME280;63015;45.378;20.360;2023-03-03T03:22:31;100907.13;;;4.54;70.41
74542;BME280;63015;45.378;20.360;2023-03-03T03:24:32;100914.75;;;4.51;70.40
74542;BME280;63015;45.378;20.360;2023-03-03T03:26:37;100906.94;;;4.48;70.45
74542;BME280;63015;45.378;20.360;2023-03-03T03:28:37;100908.69;;;4.49;70.15
74542;BME280;63015;45.378;20.360;2023-03-03T03:30:39;100915.50;;;4.47;70.30
74542;BME280;63015;45.378;20.360;2023-03-03T03:32:40;100908.66;;;4.47;70.34
74542;BME280;63015;45.378;20.360;2023-03-03T03:34:42;100911.09;;;4.44;70.50
74542;BME280;63015;45.378;20.360;2023-03-03T03:36:44;100909.06;;;4.34;70.74
74542;BME280;63015;45.378;20.360;2023-03-03T03:38:46;100911.69;;;4.35;70.66
74542;BME280;63015;45.378;20.360;2023-03-03T03:40:47;100903.94;;;4.35;70.57
74542;BME280;63015;45.378;20.360;2023-03-03T03:42:48;100902.25;;;4.36;70.60
74542;BME280;63015;45.378;20.360;2023-03-03T03:44:48;100896.28;;;4.37;70.54
74542;BME280;63015;45.378;20.360;2023-03-03T03:46:50;100899.69;;;4.36;70.47
74542;BME280;63015;45.378;20.360;2023-03-03T03:48:51;100899.50;;;4.31;70.67
74542;BME280;63015;45.378;20.360;2023-03-03T03:50:53;100898.69;;;4.32;70.53
74542;BME280;63015;45.378;20.360;2023-03-03T03:52:56;100904.53;;;4.26;70.85
74542;BME280;63015;45.378;20.360;2023-03-03T03:54:57;100896.03;;;4.29;70.75
74542;BME280;63015;45.378;20.360;2023-03-03T03:56:58;100898.59;;;4.29;70.67
74542;BME280;63015;45.378;20.360;2023-03-03T03:58:59;100912.47;;;4.33;70.62
74542;BME280;63015;45.378;20.360;2023-03-03T04:01:05;100912.28;;;4.26;70.73
74542;BME280;63015;45.378;20.360;2023-03-03T04:03:09;100914.88;;;4.26;70.84
74542;BME280;63015;45.378;20.360;2023-03-03T04:05:10;100913.25;;;4.30;70.75
74542;BME280;63015;45.378;20.360;2023-03-03T04:07:11;100920.94;;;4.28;70.84
74542;BME280;63015;45.378;20.360;2023-03-03T04:09:12;100912.28;;;4.26;70.88
74542;BME280;63015;45.378;20.360;2023-03-03T04:11:13;100906.28;;;4.27;70.95
74542;BME280;63015;45.378;20.360;2023-03-03T04:13:14;100911.56;;;4.31;70.97
74542;BME280;63015;45.378;20.360;2023-03-03T04:15:14;100907.25;;;4.31;70.82
74542;BME280;63015;45.378;20.360;2023-03-03T04:17:19;100914.25;;;4.35;70.83
74542;BME280;63015;45.378;20.360;2023-03-03T04:19:21;100910.00;;;4.36;70.85
74542;BME280;63015;45.378;20.360;2023-03-03T04:21:24;100918.50;;;4.33;71.03
74542;BME280;63015;45.378;20.360;2023-03-03T04:23:27;100916.13;;;4.39;70.85
74542;BME280;63015;45.378;20.360;2023-03-03T04:25:28;100915.19;;;4.37;71.00
74542;BME280;63015;45.378;20.360;2023-03-03T04:27:31;100920.31;;;4.36;71.00
74542;BME280;63015;45.378;20.360;2023-03-03T04:29:31;100909.97;;;4.34;71.16
74542;BME280;63015;45.378;20.360;2023-03-03T04:31:32;100910.72;;;4.32;71.13
74542;BME280;63015;45.378;20.360;2023-03-03T04:33:33;100916.06;;;4.38;70.85
74542;BME280;63015;45.378;20.360;2023-03-03T04:35:36;100920.44;;;4.40;70.91
74542;BME280;63015;45.378;20.360;2023-03-03T04:37:37;100908.31;;;4.38;70.94
74542;BME280;63015;45.378;20.360;2023-03-03T04:39:38;100906.53;;;4.35;70.91
74542;BME280;63015;45.378;20.360;2023-03-03T04:41:39;100899.75;;;4.39;70.88
74542;BME280;63015;45.378;20.360;2023-03-03T04:43:39;100902.34;;;4.39;70.73
74542;BME280;63015;45.378;20.360;2023-03-03T04:45:40;100905.91;;;4.42;70.86
74542;BME280;63015;45.378;20.360;2023-03-03T04:47:42;100910.13;;;4.40;70.81
74542;BME280;63015;45.378;20.360;2023-03-03T04:49:43;100913.47;;;4.38;70.95
74542;BME280;63015;45.378;20.360;2023-03-03T04:51:44;100910.03;;;4.37;70.71
74542;BME280;63015;45.378;20.360;2023-03-03T04:53:45;100907.50;;;4.39;70.76
74542;BME280;63015;45.378;20.360;2023-03-03T04:55:54;100915.19;;;4.37;71.05
74542;BME280;63015;45.378;20.360;2023-03-03T04:57:55;100914.38;;;4.38;70.91
74542;BME280;63015;45.378;20.360;2023-03-03T04:59:56;100920.44;;;4.40;70.84
74542;BME280;63015;45.378;20.360;2023-03-03T05:01:57;100913.47;;;4.38;71.10
74542;BME280;63015;45.378;20.360;2023-03-03T05:03:58;100909.22;;;4.38;71.10
74542;BME280;63015;45.378;20.360;2023-03-03T05:05:59;100904.16;;;4.41;70.98
74542;BME280;63015;45.378;20.360;2023-03-03T05:07:59;100906.69;;;4.40;71.04
74542;BME280;63015;45.378;20.360;2023-03-03T05:10:00;100906.72;;;4.41;70.96
74542;BME280;63015;45.378;20.360;2023-03-03T05:12:00;100902.47;;;4.42;71.12
74542;BME280;63015;45.378;20.360;2023-03-03T05:14:01;100904.31;;;4.46;70.97
74542;BME280;63015;45.378;20.360;2023-03-03T05:16:02;100908.56;;;4.45;71.10
74542;BME280;63015;45.378;20.360;2023-03-03T05:18:03;100907.69;;;4.45;71.24
74542;BME280;63015;45.378;20.360;2023-03-03T05:20:04;100905.22;;;4.48;71.12
74542;BME280;63015;45.378;20.360;2023-03-03T05:22:07;100905.66;;;4.35;71.86
74542;BME280;63015;45.378;20.360;2023-03-03T05:24:13;100909.50;;;4.48;71.46
74542;BME280;63015;45.378;20.360;2023-03-03T05:26:13;100906.84;;;4.44;71.54
74542;BME280;63015;45.378;20.360;2023-03-03T05:28:14;100909.47;;;4.46;71.46
74542;BME280;63015;45.378;20.360;2023-03-03T05:30:14;100901.84;;;4.51;71.30
74542;BME280;63015;45.378;20.360;2023-03-03T05:32:15;100900.16;;;4.51;71.29
74542;BME280;63015;45.378;20.360;2023-03-03T05:34:16;100901.03;;;4.52;71.27
74542;BME280;63015;45.378;20.360;2023-03-03T05:36:16;100898.50;;;4.53;71.39
74542;BME280;63015;45.378;20.360;2023-03-03T05:38:17;100897.59;;;4.51;71.28
74542;BME280;63015;45.378;20.360;2023-03-03T05:40:17;100913.97;;;4.53;71.34
74542;BME280;63015;45.378;20.360;2023-03-03T05:42:18;100909.78;;;4.57;71.26
74542;BME280;63015;45.378;20.360;2023-03-03T05:44:18;100918.34;;;4.56;71.44
74542;BME280;63015;45.378;20.360;2023-03-03T05:46:19;100918.44;;;4.57;71.38
74542;BME280;63015;45.378;20.360;2023-03-03T05:48:19;100908.09;;;4.57;71.23
74542;BME280;63015;45.378;20.360;2023-03-03T05:50:23;100915.09;;;4.61;71.31
74542;BME280;63015;45.378;20.360;2023-03-03T05:52:23;100923.72;;;4.62;71.36
74542;BME280;63015;45.378;20.360;2023-03-03T05:54:24;100922.84;;;4.61;71.32
74542;BME280;63015;45.378;20.360;2023-03-03T05:56:24;100926.50;;;4.68;71.44
74542;BME280;63015;45.378;20.360;2023-03-03T05:58:25;100932.63;;;4.72;71.45
74542;BME280;63015;45.378;20.360;2023-03-03T06:00:26;100930.97;;;4.74;71.34
74542;BME280;63015;45.378;20.360;2023-03-03T06:02:26;100931.75;;;4.71;71.68
74542;BME280;63015;45.378;20.360;2023-03-03T06:04:27;100932.63;;;4.72;71.72
74542;BME280;63015;45.378;20.360;2023-03-03T06:06:27;100939.56;;;4.73;71.66
74542;BME280;63015;45.378;20.360;2023-03-03T06:08:28;100935.34;;;4.76;71.54
74542;BME280;63015;45.378;20.360;2023-03-03T06:10:29;100937.16;;;4.79;71.62
74542;BME280;63015;45.378;20.360;2023-03-03T06:12:33;100939.66;;;4.76;72.16
74542;BME280;63015;45.378;20.360;2023-03-03T06:14:33;100932.22;;;4.87;71.58
74542;BME280;63015;45.378;20.360;2023-03-03T06:16:34;100936.59;;;4.89;71.50
74542;BME280;63015;45.378;20.360;2023-03-03T06:18:34;100938.16;;;4.84;71.82
74542;BME280;63015;45.378;20.360;2023-03-03T06:20:35;100932.19;;;4.85;71.73
74542;BME280;63015;45.378;20.360;2023-03-03T06:22:36;100936.72;;;4.92;71.75
74542;BME280;63015;45.378;20.360;2023-03-03T06:24:36;100933.19;;;4.90;71.92
74542;BME280;63015;45.378;20.360;2023-03-03T06:26:37;100936.00;;;4.98;71.81
74542;BME280;63015;45.378;20.360;2023-03-03T06:28:38;100929.22;;;5.02;71.72
74542;BME280;63015;45.378;20.360;2023-03-03T06:30:39;100928.59;;;5.09;71.46
74542;BME280;63015;45.378;20.360;2023-03-03T06:32:39;100933.91;;;5.15;71.62
74542;BME280;63015;45.378;20.360;2023-03-03T06:34:40;100930.66;;;5.21;71.44
74542;BME280;63015;45.378;20.360;2023-03-03T06:36:40;100934.03;;;5.18;71.34
74542;BME280;63015;45.378;20.360;2023-03-03T06:38:41;100928.88;;;5.18;71.34
74542;BME280;63015;45.378;20.360;2023-03-03T06:40:42;100933.09;;;5.16;71.53
74542;BME280;63015;45.378;20.360;2023-03-03T06:42:42;100924.59;;;5.20;71.49
74542;BME280;63015;45.378;20.360;2023-03-03T06:44:43;100927.38;;;5.26;71.44
74542;BME280;63015;45.378;20.360;2023-03-03T06:46:43;100926.56;;;5.29;71.38
74542;BME280;63015;45.378;20.360;2023-03-03T06:48:44;100924.97;;;5.33;71.37
74542;BME280;63015;45.378;20.360;2023-03-03T06:50:44;100929.31;;;5.34;70.84
74542;BME280;63015;45.378;20.360;2023-03-03T06:52:45;100931.09;;;5.36;71.11
74542;BME280;63015;45.378;20.360;2023-03-03T06:54:46;100929.44;;;5.38;70.90
74542;BME280;63015;45.378;20.360;2023-03-03T06:56:48;100936.47;;;5.44;70.87
74542;BME280;63015;45.378;20.360;2023-03-03T06:58:54;100931.25;;;5.41;70.68
74542;BME280;63015;45.378;20.360;2023-03-03T07:00:59;100931.28;;;5.42;70.57
74542;BME280;63015;45.378;20.360;2023-03-03T07:03:21;100935.53;;;5.40;70.66
74542;BME280;63015;45.378;20.360;2023-03-03T07:05:25;100934.91;;;5.49;70.64
74542;BME280;63015;45.378;20.360;2023-03-03T07:07:28;100930.75;;;5.54;70.56
74542;BME280;63015;45.378;20.360;2023-03-03T07:09:28;100936.13;;;5.62;70.46
74542;BME280;63015;45.378;20.360;2023-03-03T07:11:29;100937.94;;;5.66;70.53
74542;BME280;63015;45.378;20.360;2023-03-03T07:13:31;100941.47;;;5.68;70.34
74542;BME280;63015;45.378;20.360;2023-03-03T07:15:35;100938.13;;;5.72;70.19
74542;BME280;63015;45.378;20.360;2023-03-03T07:17:41;100943.44;;;5.77;70.03
74542;BME280;63015;45.378;20.360;2023-03-03T07:19:43;100946.88;;;5.78;69.93
74542;BME280;63015;45.378;20.360;2023-03-03T07:21:45;100942.63;;;5.80;70.03
74542;BME280;63015;45.378;20.360;2023-03-03T07:23:50;100942.72;;;5.83;69.77
74542;BME280;63015;45.378;20.360;2023-03-03T07:25:52;100945.44;;;5.87;69.57
74542;BME280;63015;45.378;20.360;2023-03-03T07:27:57;100939.28;;;5.84;69.78
74542;BME280;63015;45.378;20.360;2023-03-03T07:30:23;100946.28;;;5.88;69.19
74542;BME280;63015;45.378;20.360;2023-03-03T07:32:41;100936.19;;;5.97;69.14
74542;BME280;63015;45.378;20.360;2023-03-03T07:34:48;100936.41;;;6.05;69.03
74542;BME280;63015;45.378;20.360;2023-03-03T07:36:54;100932.03;;;6.02;68.74
74542;BME280;63015;45.378;20.360;2023-03-03T07:39:00;100938.22;;;6.07;68.85
74542;BME280;63015;45.378;20.360;2023-03-03T07:41:09;100928.06;;;6.15;68.83
74542;BME280;63015;45.378;20.360;2023-03-03T07:45:35;100935.31;;;6.29;68.30
74542;BME280;63015;45.378;20.360;2023-03-03T07:47:36;100935.19;;;6.24;68.29
74542;BME280;63015;45.378;20.360;2023-03-03T07:49:37;100934.59;;;6.36;68.24
74542;BME280;63015;45.378;20.360;2023-03-03T07:51:38;100930.41;;;6.41;68.02
74542;BME280;63015;45.378;20.360;2023-03-03T07:53:42;100927.84;;;6.42;68.04
74542;BME280;63015;45.378;20.360;2023-03-03T07:55:43;100918.53;;;6.49;67.86
74542;BME280;63015;45.378;20.360;2023-03-03T07:57:45;100923.91;;;6.57;67.57
74542;BME280;63015;45.378;20.360;2023-03-03T07:59:50;100924.72;;;6.56;67.61
74542;BME280;63015;45.378;20.360;2023-03-03T08:01:53;100930.06;;;6.62;67.39
74542;BME280;63015;45.378;20.360;2023-03-03T08:03:56;100921.34;;;6.58;67.50
74542;BME280;63015;45.378;20.360;2023-03-03T08:05:56;100925.06;;;6.70;67.32
74542;BME280;63015;45.378;20.360;2023-03-03T08:10:31;100925.25;;;6.78;67.17
74542;BME280;63015;45.378;20.360;2023-03-03T08:12:41;100929.63;;;6.80;66.82
74542;BME280;63015;45.378;20.360;2023-03-03T08:14:44;100929.63;;;6.80;66.97
74542;BME280;63015;45.378;20.360;2023-03-03T08:16:46;100931.41;;;6.83;66.87
74542;BME280;63015;45.378;20.360;2023-03-03T08:18:51;100926.88;;;6.74;66.21
74542;BME280;63015;45.378;20.360;2023-03-03T08:20:58;100929.34;;;6.69;66.47
74542;BME280;63015;45.378;20.360;2023-03-03T08:22:59;100927.03;;;6.82;66.76
74542;BME280;63015;45.378;20.360;2023-03-03T08:24:59;100928.16;;;6.93;66.35
74542;BME280;63015;45.378;20.360;2023-03-03T08:27:00;100930.50;;;7.22;67.61
74542;BME280;63015;45.378;20.360;2023-03-03T08:29:01;100920.66;;;7.48;66.26
74542;BME280;63015;45.378;20.360;2023-03-03T08:31:01;100919.28;;;7.67;65.70
74542;BME280;63015;45.378;20.360;2023-03-03T08:33:02;100927.44;;;7.86;65.83
74542;BME280;63015;45.378;20.360;2023-03-03T08:35:03;100932.81;;;7.97;64.51
74542;BME280;63015;45.378;20.360;2023-03-03T08:37:03;100936.50;;;8.11;64.63
74542;BME280;63015;45.378;20.360;2023-03-03T08:39:05;100928.03;;;8.21;63.67
74542;BME280;63015;45.378;20.360;2023-03-03T08:41:06;100931.81;;;8.42;63.93
74542;BME280;63015;45.378;20.360;2023-03-03T08:43:07;100937.41;;;8.64;63.74
74542;BME280;63015;45.378;20.360;2023-03-03T08:45:08;100942.00;;;8.83;63.40
74542;BME280;63015;45.378;20.360;2023-03-03T08:47:08;100931.84;;;8.99;62.65
74542;BME280;63015;45.378;20.360;2023-03-03T08:49:09;100928.59;;;9.17;62.29
74542;BME280;63015;45.378;20.360;2023-03-03T08:51:09;100928.03;;;9.38;61.92
74542;BME280;63015;45.378;20.360;2023-03-03T08:53:11;100931.56;;;9.46;60.24
74542;BME280;63015;45.378;20.360;2023-03-03T08:55:13;100930.13;;;9.70;61.02
74542;BME280;63015;45.378;20.360;2023-03-03T08:57:13;100931.88;;;9.73;59.83
74542;BME280;63015;45.378;20.360;2023-03-03T08:59:14;100924.94;;;9.75;59.81
74542;BME280;63015;45.378;20.360;2023-03-03T09:01:15;100925.25;;;10.04;59.91
74542;BME280;63015;45.378;20.360;2023-03-03T09:03:16;100929.75;;;10.24;59.54
74542;BME280;63015;45.378;20.360;2023-03-03T09:05:17;100931.56;;;10.31;58.57
74542;BME280;63015;45.378;20.360;2023-03-03T09:07:18;100927.25;;;10.34;57.91
74542;BME280;63015;45.378;20.360;2023-03-03T09:09:19;100920.44;;;10.47;57.69
74542;BME280;63015;45.378;20.360;2023-03-03T09:11:28;100929.03;;;10.39;55.77
74542;BME280;63015;45.378;20.360;2023-03-03T09:13:29;100928.31;;;10.58;57.46
74542;BME280;63015;45.378;20.360;2023-03-03T09:15:32;100931.03;;;10.71;57.46
74542;BME280;63015;45.378;20.360;2023-03-03T09:17:34;100929.28;;;10.69;57.07
74542;BME280;63015;45.378;20.360;2023-03-03T09:19:35;100929.38;;;10.82;57.17
74542;BME280;63015;45.378;20.360;2023-03-03T09:21:36;100923.31;;;10.89;57.42
74542;BME280;63015;45.378;20.360;2023-03-03T09:23:40;100921.72;;;11.16;57.46
74542;BME280;63015;45.378;20.360;2023-03-03T09:25:41;100924.38;;;11.31;55.63
74542;BME280;63015;45.378;20.360;2023-03-03T09:27:42;100925.28;;;11.37;56.46
74542;BME280;63015;45.378;20.360;2023-03-03T09:29:42;100924.44;;;11.47;56.33
74542;BME280;63015;45.378;20.360;2023-03-03T09:31:55;100923.63;;;11.66;55.52
74542;BME280;63015;45.378;20.360;2023-03-03T09:33:57;100922.78;;;11.81;55.58
74542;BME280;63015;45.378;20.360;2023-03-03T09:36:11;100917.59;;;11.92;55.20
74542;BME280;63015;45.378;20.360;2023-03-03T09:51:59;100915.03;;;12.29;52.35
74542;BME280;63015;45.378;20.360;2023-03-03T09:54:25;100914.16;;;12.52;52.44
74542;BME280;63015;45.378;20.360;2023-03-03T09:56:33;100912.38;;;12.73;52.92
74542;BME280;63015;45.378;20.360;2023-03-03T09:59:00;100914.06;;;12.88;52.06
74542;BME280;63015;45.378;20.360;2023-03-03T10:06:11;100910.56;;;12.95;50.32
74542;BME280;63015;45.378;20.360;2023-03-03T10:08:42;100910.59;;;12.87;51.40
74542;BME280;63015;45.378;20.360;2023-03-03T10:15:29;100910.59;;;11.82;52.23
74542;BME280;63015;45.378;20.360;2023-03-03T10:17:51;100915.81;;;11.76;52.19
74542;BME280;63015;45.378;20.360;2023-03-03T10:22:38;100917.47;;;11.47;53.16
74542;BME280;63015;45.378;20.360;2023-03-03T10:38:59;100906.28;;;11.92;53.22
74542;BME280;63015;45.378;20.360;2023-03-03T10:43:24;100901.97;;;12.19;53.08
74542;BME280;63015;45.378;20.360;2023-03-03T10:47:39;100897.59;;;12.42;53.01
74542;BME280;63015;45.378;20.360;2023-03-03T10:52:25;100899.31;;;12.48;51.18
74542;BME280;63015;45.378;20.360;2023-03-03T11:00:00;100889.75;;;12.36;51.63
74542;BME280;63015;45.378;20.360;2023-03-03T11:06:36;100892.38;;;12.05;52.27
74542;BME280;63015;45.378;20.360;2023-03-03T11:09:03;100884.50;;;11.94;51.78
74542;BME280;63015;45.378;20.360;2023-03-03T11:11:39;100884.47;;;11.74;51.89
74542;BME280;63015;45.378;20.360;2023-03-03T11:21:14;100867.13;;;12.38;52.49
74542;BME280;63015;45.378;20.360;2023-03-03T11:25:52;100869.69;;;12.61;51.26
74542;BME280;63015;45.378;20.360;2023-03-03T11:32:51;100858.25;;;12.95;50.71
74542;BME280;63015;45.378;20.360;2023-03-03T11:34:59;100856.47;;;13.08;50.44
74542;BME280;63015;45.378;20.360;2023-03-03T11:37:10;100853.03;;;12.93;50.64
74542;BME280;63015;45.378;20.360;2023-03-03T11:39:17;100853.91;;;12.94;50.92
74542;BME280;63015;45.378;20.360;2023-03-03T11:41:29;100855.56;;;13.07;51.15
74542;BME280;63015;45.378;20.360;2023-03-03T11:45:39;100852.97;;;13.06;50.53
74542;BME280;63015;45.378;20.360;2023-03-03T11:48:07;100850.31;;;13.13;51.06
74542;BME280;63015;45.378;20.360;2023-03-03T11:50:19;100846.09;;;12.83;50.01
74542;BME280;63015;45.378;20.360;2023-03-03T11:55:12;100839.13;;;12.79;51.53
74542;BME280;63015;45.378;20.360;2023-03-03T11:57:22;100844.41;;;12.56;51.78
74542;BME280;63015;45.378;20.360;2023-03-03T11:59:37;100837.41;;;12.67;51.88
74542;BME280;63015;45.378;20.360;2023-03-03T12:01:48;100833.09;;;12.63;51.59
74542;BME280;63015;45.378;20.360;2023-03-03T12:04:06;100828.69;;;12.71;51.73
74542;BME280;63015;45.378;20.360;2023-03-03T12:07:15;100833.84;;;12.91;51.67
74542;BME280;63015;45.378;20.360;2023-03-03T12:16:21;100829.47;;;12.95;50.27
74542;BME280;63015;45.378;20.360;2023-03-03T12:18:45;100827.03;;;12.44;50.92
74542;BME280;63015;45.378;20.360;2023-03-03T12:25:46;100832.31;;;11.96;51.83
74542;BME280;63015;45.378;20.360;2023-03-03T12:27:59;100834.03;;;11.98;52.55